This is the latest recevied weather packets stored in our database for station/object K7SKM. If no packets are shown the sender has not sent any weather packets the latest 10 day(s).
| Time | Temp. | Humidity | Pressure | Rain* | Wind** | Luminosity | Snow |
|---|---|---|---|---|---|---|---|
| 1778078236 | 12.22° C | 79% | 1024.3 hPa | 0 mm | - | 17 W/m² | - |
| 1778077934 | 12.22° C | 80% | 1024 hPa | 0 mm | - | 19 W/m² | - |
| 1778077633 | 12.22° C | 79% | 1024 hPa | 0 mm | - | 19 W/m² | - |
| 1778077330 | 12.78° C | 79% | 1024.3 hPa | 0 mm | - | 12 W/m² | - |
| 1778077028 | 12.22° C | 79% | 1024.2 hPa | 0 mm | - | 10 W/m² | - |
| 1778076726 | 12.78° C | 79% | 1024.3 hPa | 0 mm | - | 11 W/m² | - |
| 1778076423 | 12.78° C | 78% | 1024.5 hPa | 0 mm | - | 7 W/m² | - |
| 1778076120 | 12.22° C | 78% | 1024.3 hPa | 0 mm | - | 9 W/m² | - |
| 1778075817 | 12.22° C | 79% | 1024.1 hPa | 0 mm | - | 11 W/m² | - |
| 1778075513 | 12.22° C | 79% | 1024.3 hPa | 0 mm | - | 9 W/m² | - |
| 1778075210 | 12.22° C | 79% | 1024.2 hPa | 0 mm | - | 7 W/m² | - |
| 1778074906 | 12.22° C | 79% | 1024 hPa | 0 mm | - | 5 W/m² | - |
| 1778074603 | 12.22° C | 80% | 1024.2 hPa | 0 mm | - | 3 W/m² | - |
| 1778074300 | 12.22° C | 80% | 1024.2 hPa | 0 mm | - | 2 W/m² | - |
| 1778073998 | 12.22° C | 80% | 1024.1 hPa | 0 mm | - | 2 W/m² | - |
| 1778073694 | 12.22° C | 80% | 1023.7 hPa | 0 mm | - | 3 W/m² | - |
| 1778073392 | 12.22° C | 81% | 1023.6 hPa | 0 mm | - | 1 W/m² | - |
| 1778073088 | 12.22° C | 81% | 1023.7 hPa | 0 mm | - | 0 W/m² | - |
| 1778072785 | 12.22° C | 82% | 1023.6 hPa | 0 mm | - | 0 W/m² | - |
| 1778072482 | 12.22° C | 82% | 1023.7 hPa | 0 mm | - | 0 W/m² | - |
| 1778072180 | 12.22° C | 82% | 1023.7 hPa | 0 mm | - | 0 W/m² | - |
| 1778071878 | 12.22° C | 82% | 1023.6 hPa | 0 mm | - | 0 W/m² | - |
| 1778071576 | 12.22° C | 82% | 1023.5 hPa | 0 mm | - | 0 W/m² | - |
| 1778071273 | 12.22° C | 82% | 1023.6 hPa | 0 mm | - | 0 W/m² | - |
| 1778070971 | 12.22° C | 82% | 1023.6 hPa | 0 mm | - | 0 W/m² | - |
* Rain latest hour (hover to see other rain measurements)
** Current wind speed in m/s (hover to see current wind gust speed)